createdAt,value
2023-04-30T00:00:40.962Z,16.10
2023-04-30T00:03:10.761Z,15.07
2023-04-30T00:05:40.101Z,13.60
2023-04-30T00:08:08.297Z,13.23
2023-04-30T00:10:36.407Z,19.95
2023-04-30T00:13:04.528Z,19.47
2023-04-30T00:15:53.935Z,17.98
2023-04-30T00:18:25.038Z,16.38
2023-04-30T00:20:53.604Z,12.53
2023-04-30T00:23:21.427Z,16.73
2023-04-30T00:25:49.298Z,13.77
2023-04-30T00:28:17.332Z,20.80
2023-04-30T00:30:45.086Z,13.68
2023-04-30T00:33:13.870Z,14.63
2023-04-30T00:35:43.387Z,13.85
2023-04-30T00:38:11.486Z,17.45
2023-04-30T00:40:42.050Z,19.88
2023-04-30T00:43:10.052Z,15.30
2023-04-30T00:45:37.902Z,16.58
2023-04-30T00:48:06.064Z,14.73
2023-04-30T00:50:34.310Z,17.03
2023-04-30T00:53:04.018Z,14.20
2023-04-30T00:55:31.905Z,18.15
2023-04-30T00:58:01.555Z,13.63
2023-04-30T01:00:31.258Z,16.48
2023-04-30T01:02:59.114Z,14.20
2023-04-30T01:05:27.124Z,17.60
2023-04-30T01:07:55.420Z,18.55
2023-04-30T01:10:28.635Z,17.07
2023-04-30T01:13:01.075Z,15.18
2023-04-30T01:15:31.785Z,15.48
2023-04-30T01:18:05.440Z,15.35
2023-04-30T01:20:34.974Z,17.38
2023-04-30T01:23:10.051Z,11.57
2023-04-30T01:25:55.500Z,11.90
2023-04-30T01:28:25.982Z,14.55
2023-04-30T01:30:54.496Z,15.73
2023-04-30T01:33:22.695Z,14.82
2023-04-30T01:36:08.927Z,16.48
2023-04-30T01:38:48.107Z,18.52
2023-04-30T01:41:22.129Z,15.63
2023-04-30T01:44:01.159Z,17.90
2023-04-30T01:46:31.285Z,18.60
2023-04-30T01:49:08.389Z,16.15
2023-04-30T01:51:42.116Z,15.52
2023-04-30T01:54:18.854Z,17.40
2023-04-30T01:56:54.744Z,15.73
2023-04-30T01:59:26.379Z,17.27
2023-04-30T02:01:55.332Z,15.38
2023-04-30T02:04:23.864Z,18.17
2023-04-30T02:06:52.514Z,12.27
2023-04-30T02:09:24.379Z,15.18
2023-04-30T02:11:52.187Z,19.08
2023-04-30T02:14:19.887Z,16.58
2023-04-30T02:16:49.710Z,17.83
2023-04-30T02:19:18.007Z,14.50
2023-04-30T02:21:45.894Z,16.83
2023-04-30T02:24:14.396Z,19.23
2023-04-30T02:26:44.126Z,17.83
2023-04-30T02:29:12.347Z,20.45
2023-04-30T02:31:40.130Z,14.32
2023-04-30T02:34:11.418Z,18.50
2023-04-30T02:36:39.113Z,20.95
2023-04-30T02:39:09.119Z,20.90
2023-04-30T02:41:37.813Z,21.20
2023-04-30T02:44:06.299Z,20.88
2023-04-30T02:46:34.411Z,18.80
2023-04-30T02:49:03.571Z,18.48
2023-04-30T02:51:32.985Z,17.38
2023-04-30T02:54:00.788Z,18.50
2023-04-30T02:56:28.639Z,20.63
2023-04-30T02:58:56.433Z,20.65
2023-04-30T03:01:24.173Z,24.33
2023-04-30T03:03:52.243Z,20.95
2023-04-30T03:06:22.785Z,19.48
2023-04-30T03:08:52.053Z,26.83
2023-04-30T03:11:19.798Z,20.25
2023-04-30T03:13:49.806Z,26.50
2023-04-30T03:16:18.122Z,20.90
2023-04-30T03:18:46.394Z,21.13
2023-04-30T03:21:14.282Z,17.25
2023-04-30T03:23:42.123Z,16.05
2023-04-30T03:26:11.359Z,17.10
2023-04-30T03:28:39.127Z,17.83
2023-04-30T03:31:07.334Z,14.68
2023-04-30T03:33:35.214Z,16.05
2023-04-30T03:36:03.007Z,13.63
2023-04-30T03:38:33.126Z,14.57
2023-04-30T03:41:00.859Z,16.35
2023-04-30T03:43:32.716Z,17.20
2023-04-30T03:46:00.481Z,22.15
2023-04-30T03:48:28.479Z,22.85
2023-04-30T03:50:56.724Z,23.05
2023-04-30T03:53:25.859Z,22.60
2023-04-30T03:55:55.510Z,18.83
2023-04-30T03:58:23.837Z,33.42
2023-04-30T04:00:53.062Z,20.50
2023-04-30T04:03:21.012Z,23.05
2023-04-30T04:05:51.408Z,50.92
2023-04-30T04:08:20.394Z,26.67
2023-04-30T04:10:48.275Z,20.15
2023-04-30T04:13:15.988Z,18.65
2023-04-30T04:15:43.838Z,18.00
2023-04-30T04:18:13.293Z,23.27
2023-04-30T04:20:41.316Z,22.65
2023-04-30T04:23:11.272Z,21.23
2023-04-30T04:25:41.738Z,21.77
2023-04-30T04:28:09.453Z,20.17
2023-04-30T04:30:37.861Z,22.43
2023-04-30T04:33:09.219Z,23.95
2023-04-30T04:35:38.907Z,25.60
2023-04-30T04:38:06.668Z,22.97
2023-04-30T04:40:38.688Z,26.38
2023-04-30T04:43:06.648Z,23.95
2023-04-30T04:45:34.332Z,17.30
2023-04-30T04:48:02.179Z,17.83
2023-04-30T04:50:31.185Z,15.73
2023-04-30T04:53:00.386Z,21.35
2023-04-30T04:55:28.456Z,18.83
2023-04-30T04:57:57.319Z,18.85
2023-04-30T05:00:26.289Z,17.57
2023-04-30T05:02:54.059Z,17.13
2023-04-30T05:05:21.818Z,22.08
2023-04-30T05:07:52.523Z,23.15
2023-04-30T05:10:21.916Z,23.05
2023-04-30T05:12:49.696Z,19.02
2023-04-30T05:15:17.557Z,20.33
2023-04-30T05:17:48.289Z,17.40
2023-04-30T05:20:16.339Z,20.17
2023-04-30T05:22:44.193Z,15.77
2023-04-30T05:25:11.928Z,19.70
2023-04-30T05:27:41.060Z,20.70
2023-04-30T05:30:10.602Z,21.95
2023-04-30T05:32:38.444Z,16.87
2023-04-30T05:35:09.073Z,19.02
2023-04-30T05:37:37.064Z,17.63
2023-04-30T05:40:06.381Z,24.30
2023-04-30T05:42:38.308Z,22.35
2023-04-30T05:45:08.955Z,19.80
2023-04-30T05:47:36.745Z,23.15
2023-04-30T05:50:05.433Z,20.37
2023-04-30T05:52:34.833Z,19.30
2023-04-30T05:55:15.133Z,15.38
2023-04-30T05:57:44.370Z,23.33
2023-04-30T06:00:15.800Z,18.13
2023-04-30T06:02:43.800Z,24.05
2023-04-30T06:05:13.369Z,22.40
2023-04-30T06:07:43.431Z,20.63
2023-04-30T06:10:12.838Z,24.85
2023-04-30T06:12:40.975Z,23.30
2023-04-30T06:15:10.655Z,21.08
2023-04-30T06:17:40.209Z,20.17
2023-04-30T06:20:09.852Z,21.45
2023-04-30T06:22:37.566Z,30.60
2023-04-30T06:25:06.026Z,26.35
2023-04-30T06:27:33.739Z,20.17
2023-04-30T06:30:01.964Z,20.20
2023-04-30T06:32:30.226Z,20.73
2023-04-30T06:35:00.387Z,16.85
2023-04-30T06:37:28.757Z,12.90
2023-04-30T06:39:57.094Z,14.48
2023-04-30T06:42:25.539Z,18.30
2023-04-30T06:44:55.475Z,21.48
2023-04-30T06:47:23.262Z,19.20
2023-04-30T06:49:51.452Z,12.77
2023-04-30T06:52:21.781Z,15.07
2023-04-30T06:54:49.472Z,18.77
2023-04-30T06:57:17.574Z,16.80
2023-04-30T06:59:47.160Z,12.93
2023-04-30T07:02:14.942Z,18.35
2023-04-30T07:04:43.036Z,14.20
2023-04-30T07:07:10.818Z,12.90
2023-04-30T07:09:40.661Z,16.57
2023-04-30T07:12:08.881Z,13.68
2023-04-30T07:14:36.872Z,19.83
2023-04-30T07:17:04.584Z,18.67
2023-04-30T07:19:32.905Z,11.80
2023-04-30T07:22:00.602Z,11.80
2023-04-30T07:24:57.128Z,12.60
2023-04-30T07:27:28.308Z,16.55
2023-04-30T07:29:56.723Z,12.60
2023-04-30T07:32:27.532Z,16.50
2023-04-30T07:34:56.332Z,13.20
2023-04-30T07:37:23.997Z,10.05
2023-04-30T07:39:51.888Z,11.15
2023-04-30T07:42:19.793Z,10.82
2023-04-30T07:44:50.013Z,12.30
2023-04-30T07:47:18.894Z,15.98
2023-04-30T07:49:49.366Z,10.55
2023-04-30T07:52:17.421Z,11.23
2023-04-30T07:54:45.083Z,10.32
2023-04-30T07:57:15.871Z,13.00
2023-04-30T07:59:43.554Z,11.65
2023-04-30T08:02:16.024Z,8.93
2023-04-30T08:04:44.178Z,11.77
2023-04-30T08:07:12.550Z,16.30
2023-04-30T08:09:41.211Z,12.50
2023-04-30T08:12:14.279Z,7.15
2023-04-30T08:14:41.958Z,11.48
2023-04-30T08:17:09.971Z,9.93
2023-04-30T08:19:41.485Z,12.10
2023-04-30T08:22:09.460Z,9.27
2023-04-30T08:24:37.298Z,7.82
2023-04-30T08:27:05.144Z,12.85
2023-04-30T08:29:32.832Z,16.17
2023-04-30T08:32:05.689Z,10.27
2023-04-30T08:34:36.815Z,11.63
2023-04-30T08:37:06.143Z,7.57
2023-04-30T08:39:47.143Z,10.97
2023-04-30T08:42:16.280Z,8.93
2023-04-30T08:44:46.636Z,10.90
2023-04-30T08:47:15.049Z,16.35
2023-04-30T08:49:45.758Z,6.88
2023-04-30T08:52:15.389Z,8.60
2023-04-30T08:54:43.583Z,10.75
2023-04-30T08:57:11.828Z,6.82
2023-04-30T08:59:39.816Z,10.70
2023-04-30T09:02:07.892Z,6.22
2023-04-30T09:04:35.856Z,9.90
2023-04-30T09:07:06.250Z,11.48
2023-04-30T09:09:40.812Z,8.07
2023-04-30T09:12:18.591Z,6.20
2023-04-30T09:14:59.884Z,7.80
2023-04-30T09:17:30.828Z,8.63
2023-04-30T09:20:08.991Z,9.73
2023-04-30T09:22:38.586Z,8.52
2023-04-30T09:25:08.972Z,8.50
2023-04-30T09:27:37.010Z,8.48
2023-04-30T09:30:06.027Z,10.52
2023-04-30T09:32:34.081Z,12.33
2023-04-30T09:35:01.834Z,12.25
2023-04-30T09:37:38.071Z,8.30
2023-04-30T09:40:11.707Z,9.23
2023-04-30T09:42:39.804Z,12.48
2023-04-30T09:45:08.766Z,10.68
2023-04-30T09:47:36.642Z,7.47
2023-04-30T09:50:04.607Z,9.75
2023-04-30T09:52:32.278Z,9.35
2023-04-30T09:55:00.050Z,8.32
2023-04-30T09:57:32.354Z,6.55
2023-04-30T10:00:00.650Z,7.55
2023-04-30T10:02:28.912Z,10.80
2023-04-30T10:04:59.288Z,10.30
2023-04-30T10:07:32.714Z,9.35
2023-04-30T10:10:06.397Z,8.23
2023-04-30T10:12:41.105Z,10.30
2023-04-30T10:15:13.299Z,9.93
2023-04-30T10:17:42.551Z,12.57
2023-04-30T10:20:11.665Z,7.30
2023-04-30T10:22:41.715Z,7.70
2023-04-30T10:25:13.418Z,5.82
2023-04-30T10:27:43.062Z,9.00
2023-04-30T10:30:15.617Z,8.30
2023-04-30T10:32:48.640Z,9.90
2023-04-30T10:35:21.032Z,6.72
2023-04-30T10:37:52.004Z,8.82
2023-04-30T10:40:20.266Z,7.15
2023-04-30T10:42:50.023Z,6.88
2023-04-30T10:45:17.890Z,5.50
2023-04-30T10:47:46.806Z,5.05
2023-04-30T10:50:14.541Z,5.50
2023-04-30T10:52:42.218Z,8.45
2023-04-30T10:55:11.214Z,8.07
2023-04-30T10:57:42.587Z,5.78
2023-04-30T11:00:21.797Z,4.78
2023-04-30T11:02:50.047Z,6.45
2023-04-30T11:05:18.956Z,6.28
2023-04-30T11:07:50.562Z,10.80
2023-04-30T11:10:21.622Z,7.95
2023-04-30T11:12:49.948Z,8.48
2023-04-30T11:15:21.632Z,5.93
2023-04-30T11:17:49.966Z,10.48
2023-04-30T11:20:21.103Z,7.15
2023-04-30T11:22:48.874Z,7.37
2023-04-30T11:25:20.403Z,7.80
2023-04-30T11:27:48.166Z,6.32
2023-04-30T11:30:17.364Z,5.28
2023-04-30T11:32:48.406Z,7.03
2023-04-30T11:35:44.744Z,5.90
2023-04-30T11:38:14.195Z,8.55
2023-04-30T11:40:42.553Z,5.87
2023-04-30T11:43:22.642Z,3.80
2023-04-30T11:46:04.410Z,5.65
2023-04-30T11:48:34.614Z,5.60
2023-04-30T11:51:05.137Z,7.07
2023-04-30T11:53:33.004Z,7.50
2023-04-30T11:56:04.868Z,3.90
2023-04-30T11:58:38.019Z,8.90
2023-04-30T12:01:06.469Z,2.78
2023-04-30T12:03:42.053Z,8.57
2023-04-30T12:06:11.747Z,5.85
2023-04-30T12:08:40.024Z,7.13
2023-04-30T12:11:20.820Z,6.15
2023-04-30T12:13:52.110Z,5.00
2023-04-30T12:16:20.095Z,3.10
2023-04-30T12:18:51.343Z,7.03
2023-04-30T12:21:21.533Z,5.37
2023-04-30T12:23:49.472Z,3.08
2023-04-30T12:26:18.145Z,5.70
2023-04-30T12:28:48.580Z,4.82
2023-04-30T12:31:16.424Z,4.05
2023-04-30T12:34:24.462Z,6.00
2023-04-30T12:36:52.144Z,3.83
2023-04-30T12:39:19.886Z,8.73
2023-04-30T12:41:48.845Z,5.45
2023-04-30T12:44:21.250Z,4.10
2023-04-30T12:46:49.553Z,3.78
2023-04-30T12:49:29.279Z,2.90
2023-04-30T12:52:01.571Z,3.57
2023-04-30T12:54:30.732Z,7.47
2023-04-30T12:57:03.409Z,4.18
2023-04-30T12:59:32.056Z,4.20
2023-04-30T13:02:08.288Z,4.53
2023-04-30T13:04:37.593Z,4.07
2023-04-30T13:07:05.553Z,5.18
2023-04-30T13:09:34.401Z,4.72
2023-04-30T13:12:02.293Z,4.28
2023-04-30T13:14:30.145Z,3.97
2023-04-30T13:16:57.967Z,5.35
2023-04-30T13:19:26.179Z,4.32
2023-04-30T13:21:55.280Z,3.13
2023-04-30T13:24:23.048Z,4.15
2023-04-30T13:26:50.801Z,3.30
2023-04-30T13:29:20.797Z,3.53
2023-04-30T13:31:49.962Z,4.40
2023-04-30T13:34:17.760Z,5.00
2023-04-30T13:36:46.882Z,3.95
2023-04-30T13:39:16.346Z,3.70
2023-04-30T13:44:26.455Z,2.58
2023-04-30T13:46:54.198Z,2.72
2023-04-30T13:49:21.942Z,4.20
2023-04-30T13:51:49.922Z,4.63
2023-04-30T13:54:19.416Z,3.13
2023-04-30T13:56:48.747Z,4.30
2023-04-30T13:59:16.733Z,3.03
2023-04-30T14:01:44.557Z,4.25
2023-04-30T14:04:36.037Z,4.30
2023-04-30T14:07:04.015Z,2.38
2023-04-30T14:09:33.159Z,5.13
2023-04-30T14:12:01.064Z,4.35
2023-04-30T14:14:29.013Z,2.20
2023-04-30T14:16:56.895Z,2.33
2023-04-30T14:19:24.668Z,4.60
2023-04-30T14:21:52.377Z,5.40
2023-04-30T14:24:20.167Z,4.28
2023-04-30T14:26:49.303Z,4.55
2023-04-30T14:29:20.469Z,2.60
2023-04-30T14:31:50.708Z,3.25
2023-04-30T14:34:19.818Z,4.63
2023-04-30T14:36:47.591Z,4.03
2023-04-30T14:39:15.326Z,3.15
2023-04-30T14:41:42.998Z,2.90
2023-04-30T14:44:12.116Z,3.90
2023-04-30T14:46:40.837Z,4.13
2023-04-30T14:49:08.578Z,4.00
2023-04-30T14:51:59.594Z,3.22
2023-04-30T14:54:27.331Z,3.15
2023-04-30T14:56:55.222Z,2.53
2023-04-30T14:59:24.340Z,2.70
2023-04-30T15:01:52.128Z,3.55
2023-04-30T15:04:19.988Z,3.17
2023-04-30T15:06:48.479Z,6.20
2023-04-30T15:09:16.904Z,4.75
2023-04-30T15:11:44.625Z,2.80
2023-04-30T15:14:12.700Z,4.63
2023-04-30T15:16:42.317Z,1.73
2023-04-30T15:19:10.254Z,2.92
2023-04-30T15:21:37.929Z,5.43
2023-04-30T15:24:06.366Z,1.98
2023-04-30T15:26:34.139Z,5.97
2023-04-30T15:29:01.951Z,1.85
2023-04-30T15:31:30.772Z,3.33
2023-04-30T15:33:59.965Z,3.58
2023-04-30T15:36:27.688Z,2.00
2023-04-30T15:38:55.429Z,1.65
2023-04-30T15:41:23.220Z,4.00
2023-04-30T15:43:51.201Z,2.63
2023-04-30T15:46:19.372Z,4.32
2023-04-30T15:48:47.137Z,2.30
2023-04-30T15:51:16.267Z,3.35
2023-04-30T15:53:43.941Z,1.50
2023-04-30T15:56:12.056Z,2.60
2023-04-30T15:58:40.393Z,1.92
2023-04-30T16:01:08.840Z,1.63
2023-04-30T16:03:37.721Z,2.67
2023-04-30T16:06:05.853Z,2.95
2023-04-30T16:08:35.306Z,2.47
2023-04-30T16:11:03.649Z,3.60
2023-04-30T16:13:31.359Z,1.63
2023-04-30T16:15:59.049Z,2.70
2023-04-30T16:18:26.795Z,1.75
2023-04-30T16:20:54.505Z,1.08
2023-04-30T16:23:22.488Z,4.28
2023-04-30T16:25:51.582Z,2.22
2023-04-30T16:28:19.356Z,2.95
2023-04-30T16:30:47.394Z,1.90
2023-04-30T16:33:15.111Z,1.52
2023-04-30T16:35:43.555Z,2.73
2023-04-30T16:38:11.319Z,3.73
2023-04-30T16:40:39.030Z,3.33
2023-04-30T16:43:08.208Z,4.30
2023-04-30T16:45:36.176Z,3.72
2023-04-30T16:48:04.070Z,2.08
2023-04-30T16:50:31.959Z,2.90
2023-04-30T16:52:59.665Z,5.00
2023-04-30T16:55:27.601Z,3.28
2023-04-30T16:57:56.365Z,3.47
2023-04-30T17:00:25.534Z,4.33
2023-04-30T17:02:53.979Z,2.20
2023-04-30T17:05:22.358Z,2.08
2023-04-30T17:07:50.420Z,3.90
2023-04-30T17:13:32.438Z,3.97
2023-04-30T17:16:02.342Z,2.30
2023-04-30T17:18:30.190Z,3.97
2023-04-30T17:20:57.940Z,2.40
2023-04-30T17:23:26.036Z,4.47
2023-04-30T17:25:53.783Z,4.13
2023-04-30T17:28:21.856Z,2.20
2023-04-30T17:30:49.925Z,5.75
2023-04-30T17:33:19.311Z,3.25
2023-04-30T17:35:46.999Z,2.60
2023-04-30T17:38:14.865Z,3.38
2023-04-30T17:40:42.559Z,3.92
2023-04-30T17:43:10.330Z,6.57
2023-04-30T17:45:38.399Z,4.00
2023-04-30T17:48:06.282Z,5.10
2023-04-30T17:50:35.507Z,3.63
2023-04-30T17:53:03.280Z,5.40
2023-04-30T17:55:31.002Z,2.22
2023-04-30T17:57:59.452Z,3.72
2023-04-30T18:00:27.169Z,3.87
2023-04-30T18:02:54.925Z,4.80
2023-04-30T18:05:22.929Z,4.43
2023-04-30T18:07:52.049Z,4.90
2023-04-30T18:10:19.734Z,8.32
2023-04-30T18:12:47.449Z,4.45
2023-04-30T18:15:15.331Z,4.75
2023-04-30T18:17:43.715Z,5.25
2023-04-30T18:20:13.236Z,4.53
2023-04-30T18:22:43.552Z,5.43
2023-04-30T18:25:14.262Z,4.80
2023-04-30T18:27:42.354Z,6.22
2023-04-30T18:30:11.926Z,5.40
2023-04-30T18:32:42.027Z,4.07
2023-04-30T18:35:10.834Z,8.38
2023-04-30T18:37:38.747Z,5.80
2023-04-30T18:40:07.725Z,8.80
2023-04-30T18:42:37.547Z,4.80
2023-04-30T18:45:06.098Z,4.20
2023-04-30T18:47:34.140Z,8.55
2023-04-30T18:50:01.927Z,6.00
2023-04-30T18:52:29.829Z,3.13
2023-04-30T18:54:57.687Z,3.42
2023-04-30T18:57:25.590Z,5.75
2023-04-30T18:59:55.000Z,4.60
2023-04-30T19:02:23.031Z,6.22
2023-04-30T19:04:50.891Z,3.92
2023-04-30T19:07:18.565Z,10.03
2023-04-30T19:09:48.394Z,7.88
2023-04-30T19:12:16.159Z,9.35
2023-04-30T19:14:45.244Z,8.40
2023-04-30T19:17:14.647Z,14.05
2023-04-30T19:19:43.774Z,3.28
2023-04-30T19:22:11.679Z,8.23
2023-04-30T19:24:39.442Z,4.72
2023-04-30T19:27:07.101Z,10.07
2023-04-30T19:29:35.199Z,5.50
2023-04-30T19:32:04.913Z,4.70
2023-04-30T19:34:34.645Z,7.55
2023-04-30T19:37:02.380Z,7.47
2023-04-30T19:39:30.568Z,7.15
2023-04-30T19:41:59.014Z,7.03
2023-04-30T19:44:29.209Z,6.28
2023-04-30T19:46:57.762Z,5.47
2023-04-30T19:49:26.614Z,5.32
2023-04-30T19:51:55.883Z,5.97
2023-04-30T19:54:23.639Z,9.95
2023-04-30T19:56:52.875Z,9.75
2023-04-30T19:59:20.760Z,5.93
2023-04-30T20:01:48.882Z,8.50
2023-04-30T20:04:16.686Z,6.67
2023-04-30T20:06:44.715Z,9.45
2023-04-30T20:09:15.116Z,7.82
2023-04-30T20:11:42.814Z,10.48
2023-04-30T20:14:10.968Z,12.40
2023-04-30T20:16:38.835Z,6.23
2023-04-30T20:19:07.258Z,6.15
2023-04-30T20:21:34.938Z,6.95
2023-04-30T20:24:04.212Z,6.50
2023-04-30T20:26:34.149Z,8.73
2023-04-30T20:29:01.817Z,5.68
2023-04-30T20:31:31.311Z,10.65
2023-04-30T20:33:59.528Z,7.90
2023-04-30T20:36:29.729Z,6.80
2023-04-30T20:38:57.419Z,8.60
2023-04-30T20:41:25.821Z,10.57
2023-04-30T20:43:56.808Z,7.00
2023-04-30T20:46:24.966Z,7.00
2023-04-30T20:48:54.558Z,6.43
2023-04-30T20:51:23.567Z,7.13
2023-04-30T20:53:51.338Z,8.05
2023-04-30T20:56:19.024Z,7.78
2023-04-30T20:58:46.760Z,10.90
2023-04-30T21:01:15.936Z,11.57
2023-04-30T21:03:43.719Z,8.30
2023-04-30T21:06:12.048Z,5.78
2023-04-30T21:08:39.741Z,7.30
2023-04-30T21:11:07.503Z,5.22
2023-04-30T21:13:35.274Z,9.53
2023-04-30T21:16:05.232Z,7.43
2023-04-30T21:18:35.154Z,11.57
2023-04-30T21:21:03.749Z,6.70
2023-04-30T21:23:32.590Z,8.90
2023-04-30T21:26:00.572Z,8.43
2023-04-30T21:28:28.314Z,8.10
2023-04-30T21:30:56.203Z,10.10
2023-04-30T21:33:23.986Z,9.73
2023-04-30T21:35:53.050Z,5.72
2023-04-30T21:38:20.762Z,7.72
2023-04-30T21:40:48.461Z,7.73
2023-04-30T21:43:17.839Z,9.48
2023-04-30T21:45:45.699Z,7.72
2023-04-30T21:48:13.593Z,6.20
2023-04-30T21:50:41.283Z,6.72
2023-04-30T21:53:10.818Z,8.35
2023-04-30T21:55:38.520Z,7.00
2023-04-30T21:58:06.222Z,7.63
2023-04-30T22:00:34.907Z,8.23
2023-04-30T22:03:02.636Z,5.88
2023-04-30T22:05:30.376Z,13.80
2023-04-30T22:07:58.110Z,11.75
2023-04-30T22:10:27.412Z,7.63
2023-04-30T22:12:55.284Z,12.13
2023-04-30T22:15:23.104Z,16.27
2023-04-30T22:17:50.886Z,9.70
2023-04-30T22:20:18.765Z,9.85
2023-04-30T22:22:46.841Z,9.07
2023-04-30T22:25:15.078Z,12.68
2023-04-30T22:27:45.682Z,7.65
2023-04-30T22:30:13.564Z,11.70
2023-04-30T22:32:42.344Z,11.70
2023-04-30T22:35:12.053Z,8.38
2023-04-30T22:37:40.370Z,10.50
2023-04-30T22:40:09.097Z,9.50
2023-04-30T22:42:36.816Z,9.23
2023-04-30T22:45:06.967Z,7.20
2023-04-30T22:47:35.257Z,12.13
2023-04-30T22:50:03.411Z,8.05
2023-04-30T22:52:33.086Z,11.38
2023-04-30T22:55:01.323Z,8.23
2023-04-30T22:57:29.066Z,11.80
2023-04-30T22:59:57.451Z,8.50
2023-04-30T23:02:28.747Z,12.30
2023-04-30T23:04:56.973Z,10.73
2023-04-30T23:07:24.817Z,11.37
2023-04-30T23:09:52.587Z,14.18
2023-04-30T23:12:20.302Z,9.38
2023-04-30T23:14:47.983Z,11.35
2023-04-30T23:17:15.787Z,11.52
2023-04-30T23:19:44.904Z,10.25
2023-04-30T23:22:12.661Z,10.90
2023-04-30T23:24:41.206Z,16.88
2023-04-30T23:27:08.961Z,12.63
2023-04-30T23:29:36.742Z,7.60
2023-04-30T23:32:05.729Z,11.33
2023-04-30T23:34:33.614Z,11.52
2023-04-30T23:37:03.047Z,8.13
2023-04-30T23:39:31.007Z,11.98
2023-04-30T23:41:58.930Z,11.80
2023-04-30T23:44:26.678Z,9.80
2023-04-30T23:46:56.097Z,9.05
2023-04-30T23:49:24.995Z,9.52
2023-04-30T23:51:53.176Z,10.70
2023-04-30T23:54:22.414Z,10.23
2023-04-30T23:56:50.260Z,11.55
2023-04-30T23:59:17.943Z,9.70
